createdAt,value
2022-10-16T00:00:55.467Z,100622.50
2022-10-16T00:03:26.767Z,100626.53
2022-10-16T00:06:01.019Z,100624.00
2022-10-16T00:08:28.616Z,100630.19
2022-10-16T00:11:09.148Z,100630.19
2022-10-16T00:13:38.062Z,100623.63
2022-10-16T00:16:05.566Z,100618.44
2022-10-16T00:18:32.466Z,100626.38
2022-10-16T00:21:27.155Z,100618.12
2022-10-16T00:23:55.953Z,100615.19
2022-10-16T00:26:23.632Z,100627.88
2022-10-16T00:28:51.852Z,100626.06
2022-10-16T00:31:20.835Z,100629.53
2022-10-16T00:33:48.339Z,100628.38
2022-10-16T00:36:19.112Z,100622.81
2022-10-16T00:38:46.311Z,100621.66
2022-10-16T00:41:16.590Z,100621.25
2022-10-16T00:43:45.665Z,100627.47
2022-10-16T00:46:38.652Z,100630.25
2022-10-16T00:49:18.110Z,100624.19
2022-10-16T00:51:51.897Z,100635.06
2022-10-16T00:54:22.487Z,100639.59
2022-10-16T00:56:50.457Z,100636.06
2022-10-16T00:59:20.732Z,100641.69
2022-10-16T01:01:47.826Z,100645.00
2022-10-16T01:04:14.713Z,100647.78
2022-10-16T01:06:57.310Z,100644.91
2022-10-16T01:10:04.135Z,100651.59
2022-10-16T01:12:44.211Z,100650.72
2022-10-16T01:18:27.670Z,100656.09
2022-10-16T01:21:04.170Z,100660.34
2022-10-16T01:23:40.222Z,100659.31
2022-10-16T01:26:14.643Z,100666.78
2022-10-16T01:28:50.800Z,100666.78
2022-10-16T01:31:20.146Z,100657.78
2022-10-16T01:33:51.378Z,100659.88
2022-10-16T01:36:26.984Z,100673.31
2022-10-16T01:38:55.699Z,100662.94
2022-10-16T01:41:26.628Z,100667.06
2022-10-16T01:43:54.541Z,100675.75
2022-10-16T01:46:22.479Z,100669.25
2022-10-16T01:48:50.470Z,100678.63
2022-10-16T01:51:18.259Z,100679.59
2022-10-16T01:53:49.670Z,100678.91
2022-10-16T01:56:18.442Z,100680.94
2022-10-16T01:58:54.914Z,100678.28
2022-10-16T02:01:24.565Z,100677.94
2022-10-16T02:03:53.190Z,100674.81
2022-10-16T02:06:20.629Z,100676.38
2022-10-16T02:08:47.915Z,100673.12
2022-10-16T02:11:15.051Z,100673.38
2022-10-16T02:13:49.802Z,100681.56
2022-10-16T02:16:16.890Z,100681.06
2022-10-16T02:18:44.583Z,100697.91
2022-10-16T02:21:19.018Z,100700.28
2022-10-16T02:23:55.417Z,100691.53
2022-10-16T02:26:32.305Z,100692.38
2022-10-16T02:29:02.731Z,100700.19
2022-10-16T02:31:32.710Z,100697.78
2022-10-16T02:34:00.234Z,100699.38
2022-10-16T02:36:28.280Z,100692.62
2022-10-16T02:38:55.390Z,100696.22
2022-10-16T02:41:23.198Z,100701.75
2022-10-16T02:43:50.528Z,100710.63
2022-10-16T02:46:18.918Z,100707.97
2022-10-16T02:48:46.000Z,100706.53
2022-10-16T02:51:12.995Z,100714.19
2022-10-16T02:53:39.854Z,100707.19
2022-10-16T02:56:07.107Z,100704.50
2022-10-16T02:58:34.085Z,100713.22
2022-10-16T03:01:01.077Z,100712.09
2022-10-16T03:03:28.254Z,100710.84
2022-10-16T03:05:55.117Z,100709.50
2022-10-16T03:08:24.576Z,100705.25
2022-10-16T03:10:52.282Z,100713.75
2022-10-16T03:13:21.363Z,100707.63
2022-10-16T03:15:48.465Z,100712.53
2022-10-16T03:18:16.115Z,100716.22
2022-10-16T03:20:43.994Z,100720.75
2022-10-16T03:23:11.010Z,100719.53
2022-10-16T03:25:38.153Z,100723.12
2022-10-16T03:28:05.059Z,100727.75
2022-10-16T03:30:31.940Z,100733.03
2022-10-16T03:32:59.025Z,100730.72
2022-10-16T03:35:25.980Z,100730.97
2022-10-16T03:37:53.015Z,100728.53
2022-10-16T03:40:20.133Z,100748.19
2022-10-16T03:42:46.989Z,100745.34
2022-10-16T03:45:13.860Z,100746.19
2022-10-16T03:47:40.965Z,100746.50
2022-10-16T03:50:08.388Z,100748.28
2022-10-16T03:52:35.325Z,100749.56
2022-10-16T03:55:02.414Z,100755.06
2022-10-16T03:57:29.522Z,100753.16
2022-10-16T03:59:56.617Z,100761.19
2022-10-16T04:02:23.790Z,100758.66
2022-10-16T04:04:51.453Z,100760.31
2022-10-16T04:07:18.308Z,100756.13
2022-10-16T04:09:45.154Z,100757.38
2022-10-16T04:12:12.301Z,100767.81
2022-10-16T04:14:39.157Z,100770.03
2022-10-16T04:17:06.074Z,100771.41
2022-10-16T04:19:33.190Z,100781.44
2022-10-16T04:22:00.085Z,100764.25
2022-10-16T04:24:26.937Z,100762.87
2022-10-16T04:26:54.069Z,100758.84
2022-10-16T04:29:20.954Z,100757.19
2022-10-16T04:31:47.896Z,100760.13
2022-10-16T04:34:15.003Z,100755.91
2022-10-16T04:36:44.630Z,100756.22
2022-10-16T04:39:11.469Z,100761.31
2022-10-16T04:41:41.678Z,100757.19
2022-10-16T04:44:11.740Z,100763.19
2022-10-16T04:46:41.697Z,100768.56
2022-10-16T04:49:11.304Z,100768.78
2022-10-16T04:51:41.647Z,100774.50
2022-10-16T04:54:11.417Z,100768.75
2022-10-16T04:56:44.250Z,100774.91
2022-10-16T04:59:11.163Z,100783.00
2022-10-16T05:01:41.344Z,100787.66
2022-10-16T05:04:11.538Z,100781.62
2022-10-16T05:06:41.994Z,100776.34
2022-10-16T05:09:11.670Z,100777.19
2022-10-16T05:11:41.845Z,100780.38
2022-10-16T05:16:43.704Z,100788.91
2022-10-16T05:19:27.762Z,100794.06
2022-10-16T05:21:55.567Z,100790.69
2022-10-16T05:24:22.765Z,100793.63
2022-10-16T05:26:49.673Z,100798.91
2022-10-16T05:29:16.760Z,100804.09
2022-10-16T05:31:43.638Z,100807.75
2022-10-16T05:34:13.542Z,100795.22
2022-10-16T05:36:43.494Z,100793.41
2022-10-16T05:39:10.336Z,100802.19
2022-10-16T05:41:39.409Z,100805.41
2022-10-16T05:44:08.015Z,100804.78
2022-10-16T05:46:34.947Z,100814.06
2022-10-16T05:49:01.898Z,100810.59
2022-10-16T05:51:29.026Z,100820.37
2022-10-16T05:53:55.915Z,100819.87
2022-10-16T05:56:22.823Z,100825.22
2022-10-16T05:58:49.958Z,100821.88
2022-10-16T06:01:18.647Z,100819.31
2022-10-16T06:03:46.126Z,100832.12
2022-10-16T06:06:21.255Z,100842.06
2022-10-16T06:08:49.403Z,100840.78
2022-10-16T06:11:18.705Z,100857.28
2022-10-16T06:13:46.913Z,100855.03
2022-10-16T06:16:14.184Z,100859.44
2022-10-16T06:18:41.343Z,100863.28
2022-10-16T06:21:10.722Z,100870.59
2022-10-16T06:23:38.434Z,100875.53
2022-10-16T06:26:16.933Z,100875.13
2022-10-16T06:28:44.159Z,100880.84
2022-10-16T06:31:12.406Z,100882.25
2022-10-16T06:33:40.268Z,100892.97
2022-10-16T06:36:12.625Z,100899.53
2022-10-16T06:38:39.834Z,100906.78
2022-10-16T06:41:08.235Z,100899.06
2022-10-16T06:43:38.238Z,100897.97
2022-10-16T06:46:08.677Z,100899.22
2022-10-16T06:48:36.261Z,100905.28
2022-10-16T06:51:20.702Z,100905.75
2022-10-16T06:54:08.209Z,100905.06
2022-10-16T06:56:35.740Z,100911.31
2022-10-16T06:59:03.370Z,100927.03
2022-10-16T07:01:31.214Z,100922.03
2022-10-16T07:03:58.473Z,100931.91
2022-10-16T07:06:26.505Z,100927.91
2022-10-16T07:08:53.473Z,100936.03
2022-10-16T07:11:22.397Z,100931.31
2022-10-16T07:13:54.569Z,100943.75
2022-10-16T07:16:25.729Z,100946.13
2022-10-16T07:19:01.191Z,100962.72
2022-10-16T07:21:30.997Z,100948.50
2022-10-16T07:24:00.144Z,100955.09
2022-10-16T07:26:28.116Z,100957.47
2022-10-16T07:28:55.204Z,100960.62
2022-10-16T07:31:22.481Z,100952.66
2022-10-16T07:33:50.487Z,100962.13
2022-10-16T07:36:18.953Z,100962.91
2022-10-16T07:38:46.103Z,100955.03
2022-10-16T07:41:18.543Z,100941.72
2022-10-16T07:43:52.967Z,100937.41
2022-10-16T07:46:21.752Z,100946.06
2022-10-16T07:48:49.273Z,100953.00
2022-10-16T07:51:18.927Z,100958.03
2022-10-16T07:53:46.660Z,100957.84
2022-10-16T07:56:13.602Z,100966.28
2022-10-16T07:58:40.660Z,100967.12
2022-10-16T08:01:09.863Z,100966.03
2022-10-16T08:03:37.152Z,100974.09
2022-10-16T08:06:04.767Z,100977.44
2022-10-16T08:08:31.694Z,100979.25
2022-10-16T08:10:58.812Z,100984.19
2022-10-16T08:13:25.692Z,100989.00
2022-10-16T08:15:54.832Z,100989.47
2022-10-16T08:18:21.957Z,100988.72
2022-10-16T08:20:48.805Z,100994.53
2022-10-16T08:23:15.744Z,100989.94
2022-10-16T08:25:42.891Z,101001.22
2022-10-16T08:28:11.730Z,100997.47
2022-10-16T08:30:38.831Z,100994.69
2022-10-16T08:33:06.950Z,100994.69
2022-10-16T08:35:34.257Z,101007.09
2022-10-16T08:38:01.118Z,101003.75
2022-10-16T08:40:34.229Z,101003.00
2022-10-16T08:43:06.910Z,100998.19
2022-10-16T08:45:40.002Z,101005.78
2022-10-16T08:48:16.258Z,101013.06
2022-10-16T08:50:44.703Z,101013.59
2022-10-16T08:53:25.738Z,101002.84
2022-10-16T08:55:54.106Z,101003.75
2022-10-16T08:58:23.633Z,101015.09
2022-10-16T09:00:55.539Z,101020.78
2022-10-16T09:03:38.242Z,101013.94
2022-10-16T09:06:29.549Z,101012.69
2022-10-16T09:09:24.726Z,101021.19
2022-10-16T09:12:02.719Z,101029.87
2022-10-16T09:14:48.264Z,101025.41
2022-10-16T09:17:45.218Z,101040.09
2022-10-16T09:20:29.300Z,101026.22
2022-10-16T09:23:17.618Z,101042.94
2022-10-16T09:25:50.079Z,101037.78
2022-10-16T09:28:18.485Z,101040.63
2022-10-16T09:30:46.441Z,101035.56
2022-10-16T09:33:14.966Z,101023.50
2022-10-16T09:35:45.168Z,101022.56
2022-10-16T09:38:36.850Z,101019.06
2022-10-16T09:41:22.472Z,101021.22
2022-10-16T09:43:55.490Z,101017.81
2022-10-16T09:46:27.218Z,101016.22
2022-10-16T09:48:57.208Z,101020.16
2022-10-16T09:51:36.365Z,101030.37
2022-10-16T09:54:21.045Z,101024.03
2022-10-16T09:56:52.838Z,101022.06
2022-10-16T09:59:22.143Z,101032.22
2022-10-16T10:01:53.892Z,101038.00
2022-10-16T10:04:23.101Z,101030.03
2022-10-16T10:06:55.379Z,101033.75
2022-10-16T10:09:25.210Z,101027.81
2022-10-16T10:11:56.137Z,101028.38
2022-10-16T10:15:00.538Z,101031.19
2022-10-16T10:17:29.218Z,101031.72
2022-10-16T10:20:04.069Z,101021.16
2022-10-16T10:22:39.978Z,101014.06
2022-10-16T10:25:12.674Z,101024.03
2022-10-16T10:28:06.724Z,101022.81
2022-10-16T10:31:09.061Z,101017.63
2022-10-16T10:33:55.817Z,101027.50
2022-10-16T10:36:36.095Z,101012.47
2022-10-16T10:39:16.904Z,101004.22
2022-10-16T10:42:13.122Z,101005.81
2022-10-16T10:45:20.083Z,101007.25
2022-10-16T10:48:20.694Z,101007.38
2022-10-16T10:50:55.823Z,100995.34
2022-10-16T10:53:52.182Z,100997.28
2022-10-16T10:56:40.224Z,101002.75
2022-10-16T10:59:42.906Z,100999.56
2022-10-16T11:02:23.132Z,101010.25
2022-10-16T11:05:13.558Z,101007.16
2022-10-16T11:07:54.082Z,100997.25
2022-10-16T11:10:32.002Z,100994.91
2022-10-16T11:13:24.959Z,101005.41
2022-10-16T11:15:55.186Z,100990.59
2022-10-16T11:18:45.380Z,101002.31
2022-10-16T11:21:14.407Z,101001.56
2022-10-16T11:23:57.787Z,100987.25
2022-10-16T11:26:28.596Z,100998.63
2022-10-16T11:28:57.514Z,100990.00
2022-10-16T11:31:31.178Z,100987.97
2022-10-16T11:34:16.028Z,100986.41
2022-10-16T11:36:52.651Z,100985.00
2022-10-16T11:39:22.350Z,100982.34
2022-10-16T11:41:52.786Z,100987.03
2022-10-16T11:44:40.999Z,100984.84
2022-10-16T11:47:46.456Z,100985.00
2022-10-16T11:50:21.913Z,100988.56
2022-10-16T11:53:14.614Z,100992.09
2022-10-16T11:55:46.796Z,100997.28
2022-10-16T11:58:27.680Z,100996.16
2022-10-16T12:01:06.739Z,100993.47
2022-10-16T12:04:00.961Z,100991.47
2022-10-16T12:06:51.881Z,100983.94
2022-10-16T12:09:30.839Z,100989.66
2022-10-16T12:11:58.137Z,100987.66
2022-10-16T12:14:51.700Z,100974.78
2022-10-16T12:17:35.559Z,100969.41
2022-10-16T12:20:22.088Z,100974.78
2022-10-16T12:22:59.759Z,100975.94
2022-10-16T12:25:35.250Z,100966.25
2022-10-16T12:28:06.027Z,100966.69
2022-10-16T12:30:36.612Z,100959.88
2022-10-16T12:33:04.760Z,100964.88
2022-10-16T12:35:35.080Z,100961.03
2022-10-16T12:38:20.991Z,100961.53
2022-10-16T12:40:58.876Z,100960.84
2022-10-16T12:43:35.570Z,100957.53
2022-10-16T12:46:05.593Z,100963.22
2022-10-16T12:48:42.474Z,100956.88
2022-10-16T12:51:35.619Z,100963.22
2022-10-16T12:54:16.289Z,100958.38
2022-10-16T12:56:58.233Z,100956.88
2022-10-16T13:00:10.746Z,100965.25
2022-10-16T13:02:50.901Z,100961.75
2022-10-16T13:05:25.337Z,100967.12
2022-10-16T13:08:07.198Z,100974.62
2022-10-16T13:10:45.483Z,100973.47
2022-10-16T13:13:30.778Z,100973.28
2022-10-16T13:16:00.882Z,100972.59
2022-10-16T13:18:39.677Z,100966.75
2022-10-16T13:21:19.016Z,100970.59
2022-10-16T13:23:58.293Z,100973.97
2022-10-16T13:26:51.624Z,100979.66
2022-10-16T13:29:19.634Z,100981.50
2022-10-16T13:31:46.794Z,100980.34
2022-10-16T13:34:22.734Z,100987.22
2022-10-16T13:36:53.750Z,100993.72
2022-10-16T13:39:25.940Z,100984.84
2022-10-16T13:42:27.023Z,100986.19
2022-10-16T13:44:57.082Z,100977.81
2022-10-16T13:47:29.606Z,100981.84
2022-10-16T13:50:10.642Z,100987.00
2022-10-16T13:52:39.087Z,100985.50
2022-10-16T13:55:17.532Z,100995.38
2022-10-16T13:57:44.803Z,100988.19
2022-10-16T14:00:30.887Z,100996.22
2022-10-16T14:03:13.914Z,101000.53
2022-10-16T14:05:49.389Z,100998.84
2022-10-16T14:08:16.622Z,100990.66
2022-10-16T14:10:43.572Z,100999.72
2022-10-16T14:13:18.017Z,101001.75
2022-10-16T14:15:48.625Z,101003.09
2022-10-16T14:18:19.975Z,100989.66
2022-10-16T14:20:47.186Z,100990.03
2022-10-16T14:23:29.849Z,100989.53
2022-10-16T14:26:14.122Z,100990.84
2022-10-16T14:28:42.212Z,100996.37
2022-10-16T14:31:25.990Z,100989.66
2022-10-16T14:33:54.077Z,100994.97
2022-10-16T14:36:22.863Z,100993.00
2022-10-16T14:39:18.788Z,100991.19
2022-10-16T14:41:48.063Z,100987.84
2022-10-16T14:44:15.446Z,100993.41
2022-10-16T14:46:45.953Z,100996.44
2022-10-16T14:49:19.379Z,100995.75
2022-10-16T14:51:46.988Z,101000.13
2022-10-16T14:54:18.966Z,101007.81
2022-10-16T14:56:54.625Z,100997.56
2022-10-16T14:59:40.884Z,100997.72
2022-10-16T15:02:21.168Z,100997.38
2022-10-16T15:04:48.509Z,100996.37
2022-10-16T15:07:15.779Z,101001.03
2022-10-16T15:09:48.025Z,100998.16
2022-10-16T15:12:17.165Z,100995.12
2022-10-16T15:14:44.391Z,101001.97
2022-10-16T15:17:11.941Z,101004.47
2022-10-16T15:19:39.204Z,101007.25
2022-10-16T15:22:06.114Z,101010.75
2022-10-16T15:24:32.999Z,101010.91
2022-10-16T15:27:00.165Z,101019.87
2022-10-16T15:29:27.007Z,101025.84
2022-10-16T15:31:53.882Z,101019.47
2022-10-16T15:34:21.061Z,101024.09
2022-10-16T15:36:47.909Z,101035.75
2022-10-16T15:39:17.065Z,101034.28
2022-10-16T15:41:46.179Z,101027.13
2022-10-16T15:44:13.043Z,101030.66
2022-10-16T15:46:42.894Z,101032.12
2022-10-16T15:49:13.168Z,101036.03
2022-10-16T15:51:43.579Z,101039.84
2022-10-16T15:54:10.787Z,101033.87
2022-10-16T15:56:38.171Z,101038.56
2022-10-16T15:59:10.420Z,101025.88
2022-10-16T16:01:37.636Z,101027.50
2022-10-16T16:04:15.330Z,101022.63
2022-10-16T16:06:47.281Z,101041.16
2022-10-16T16:09:15.335Z,101033.22
2022-10-16T16:11:45.006Z,101033.69
2022-10-16T16:14:15.344Z,101032.31
2022-10-16T16:16:43.079Z,101041.31
2022-10-16T16:19:12.777Z,101041.75
2022-10-16T16:21:42.546Z,101048.19
2022-10-16T16:24:12.424Z,101050.13
2022-10-16T16:26:44.468Z,101054.31
2022-10-16T16:29:16.094Z,101056.09
2022-10-16T16:31:43.434Z,101065.62
2022-10-16T16:34:10.571Z,101071.78
2022-10-16T16:36:37.768Z,101083.25
2022-10-16T16:39:04.894Z,101085.47
2022-10-16T16:41:31.980Z,101073.44
2022-10-16T16:44:07.762Z,101079.00
2022-10-16T16:46:34.970Z,101090.41
2022-10-16T16:49:02.981Z,101092.62
2022-10-16T16:51:29.909Z,101094.16
2022-10-16T16:53:57.180Z,101095.41
2022-10-16T16:56:25.090Z,101093.66
2022-10-16T16:58:55.077Z,101096.12
2022-10-16T17:01:22.801Z,101099.53
2022-10-16T17:03:52.618Z,101104.41
2022-10-16T17:06:21.843Z,101108.28
2022-10-16T17:08:49.781Z,101112.44
2022-10-16T17:11:22.667Z,101118.59
2022-10-16T17:13:53.884Z,101115.41
2022-10-16T17:16:29.918Z,101124.87
2022-10-16T17:18:57.134Z,101140.34
2022-10-16T17:21:24.314Z,101136.25
2022-10-16T17:23:53.030Z,101144.88
2022-10-16T17:26:19.955Z,101138.25
2022-10-16T17:28:47.150Z,101144.53
2022-10-16T17:31:16.850Z,101152.28
2022-10-16T17:33:44.694Z,101160.47
2022-10-16T17:36:14.606Z,101144.06
2022-10-16T17:38:42.791Z,101155.81
2022-10-16T17:41:22.470Z,101155.59
2022-10-16T17:43:50.160Z,101168.25
2022-10-16T17:46:18.877Z,101168.75
2022-10-16T17:48:48.286Z,101164.91
2022-10-16T17:51:20.818Z,101172.84
2022-10-16T17:53:52.523Z,101166.56
2022-10-16T17:56:20.199Z,101177.69
2022-10-16T17:58:51.731Z,101178.53
2022-10-16T18:01:24.941Z,101180.59
2022-10-16T18:03:57.676Z,101178.12
2022-10-16T18:06:25.154Z,101182.47
2022-10-16T18:08:53.417Z,101196.34
2022-10-16T18:11:21.850Z,101184.66
2022-10-16T18:13:48.737Z,101187.53
2022-10-16T18:16:16.181Z,101187.53
2022-10-16T18:18:44.887Z,101190.41
2022-10-16T18:21:13.941Z,101194.88
2022-10-16T18:23:41.581Z,101190.41
2022-10-16T18:26:10.237Z,101181.25
2022-10-16T18:28:37.520Z,101185.69
2022-10-16T18:31:07.317Z,101190.63
2022-10-16T18:33:34.253Z,101193.03
2022-10-16T18:36:09.170Z,101188.31
2022-10-16T18:38:37.185Z,101188.53
2022-10-16T18:41:05.752Z,101193.00
2022-10-16T18:43:37.557Z,101199.84
2022-10-16T18:46:07.777Z,101196.31
2022-10-16T18:48:35.004Z,101199.69
2022-10-16T18:51:19.555Z,101191.03
2022-10-16T18:53:49.418Z,101198.25
2022-10-16T18:56:17.508Z,101206.41
2022-10-16T18:58:45.926Z,101201.44
2022-10-16T19:01:16.285Z,101202.53
2022-10-16T19:03:43.979Z,101208.78
2022-10-16T19:06:14.348Z,101205.53
2022-10-16T19:08:41.589Z,101212.13
2022-10-16T19:11:11.558Z,101213.78
2022-10-16T19:13:38.614Z,101221.03
2022-10-16T19:16:19.717Z,101217.06
2022-10-16T19:18:48.423Z,101229.25
2022-10-16T19:21:16.226Z,101227.56
2022-10-16T19:23:43.805Z,101230.84
2022-10-16T19:26:16.196Z,101233.03
2022-10-16T19:28:44.299Z,101232.84
2022-10-16T19:31:16.700Z,101235.94
2022-10-16T19:33:44.009Z,101228.50
2022-10-16T19:36:13.484Z,101227.56
2022-10-16T19:38:41.702Z,101226.09
2022-10-16T19:41:16.762Z,101228.84
2022-10-16T19:43:44.094Z,101226.09
2022-10-16T19:46:18.759Z,101228.00
2022-10-16T19:48:45.954Z,101231.62
2022-10-16T19:51:16.343Z,101236.91
2022-10-16T19:53:44.197Z,101233.03
2022-10-16T19:56:21.357Z,101248.66
2022-10-16T19:58:49.044Z,101252.88
2022-10-16T20:01:16.780Z,101260.69
2022-10-16T20:03:45.072Z,101259.00
2022-10-16T20:06:12.698Z,101260.16
2022-10-16T20:08:41.139Z,101258.03
2022-10-16T20:11:20.182Z,101254.94
2022-10-16T20:13:47.116Z,101260.69
2022-10-16T20:16:17.863Z,101260.16
2022-10-16T20:18:45.770Z,101275.56
2022-10-16T20:21:16.537Z,101276.00
2022-10-16T20:23:44.814Z,101284.47
2022-10-16T20:26:11.712Z,101282.91
2022-10-16T20:28:42.611Z,101289.34
2022-10-16T20:31:16.010Z,101297.50
2022-10-16T20:33:42.971Z,101289.03
2022-10-16T20:36:14.110Z,101302.28
2022-10-16T20:38:41.628Z,101301.53
2022-10-16T20:41:09.117Z,101309.06
2022-10-16T20:43:39.251Z,101309.47
2022-10-16T20:46:08.823Z,101317.09
2022-10-16T20:48:36.032Z,101322.63
2022-10-16T20:51:23.221Z,101314.13
2022-10-16T20:53:55.320Z,101321.78
2022-10-16T20:56:23.093Z,101325.56
2022-10-16T20:58:49.965Z,101322.72
2022-10-16T21:01:20.858Z,101330.22
2022-10-16T21:03:56.499Z,101332.34
2022-10-16T21:06:24.047Z,101337.84
2022-10-16T21:08:51.351Z,101330.00
2022-10-16T21:11:23.173Z,101338.91
2022-10-16T21:13:53.396Z,101337.00
2022-10-16T21:16:20.708Z,101343.97
2022-10-16T21:18:47.642Z,101342.09
2022-10-16T21:21:29.039Z,101351.34
2022-10-16T21:23:57.313Z,101356.97
2022-10-16T21:26:28.072Z,101356.44
2022-10-16T21:28:59.811Z,101353.16
2022-10-16T21:31:27.454Z,101352.53
2022-10-16T21:33:55.340Z,101347.62
2022-10-16T21:36:24.377Z,101356.81
2022-10-16T21:38:51.897Z,101357.00
2022-10-16T21:41:23.859Z,101361.75
2022-10-16T21:43:51.149Z,101356.13
2022-10-16T21:46:19.970Z,101356.13
2022-10-16T21:48:47.183Z,101359.00
2022-10-16T21:51:14.748Z,101368.38
2022-10-16T21:53:41.859Z,101363.09
2022-10-16T21:56:16.201Z,101367.53
2022-10-16T21:58:44.241Z,101362.47
2022-10-16T22:01:16.578Z,101361.63
2022-10-16T22:03:44.549Z,101365.97
2022-10-16T22:06:12.942Z,101365.19
2022-10-16T22:08:40.782Z,101361.63
2022-10-16T22:11:21.508Z,101355.78
2022-10-16T22:13:54.089Z,101366.53
2022-10-16T22:16:27.028Z,101363.91
2022-10-16T22:18:55.603Z,101373.63
2022-10-16T22:21:23.000Z,101386.72
2022-10-16T22:23:50.255Z,101370.88
2022-10-16T22:26:17.200Z,101371.28
2022-10-16T22:28:44.080Z,101373.19
2022-10-16T22:31:13.326Z,101386.00
2022-10-16T22:33:40.876Z,101384.88
2022-10-16T22:36:10.552Z,101385.84
2022-10-16T22:38:37.675Z,101387.00
2022-10-16T22:41:09.716Z,101387.75
2022-10-16T22:43:38.470Z,101385.66
2022-10-16T22:46:08.201Z,101383.25
2022-10-16T22:48:36.082Z,101387.84
2022-10-16T22:51:04.767Z,101388.69
2022-10-16T22:53:31.870Z,101393.97
2022-10-16T22:55:58.850Z,101392.50
2022-10-16T22:58:25.742Z,101390.25
2022-10-16T23:00:52.983Z,101387.59
2022-10-16T23:03:20.054Z,101390.88
2022-10-16T23:05:46.947Z,101396.44
2022-10-16T23:08:15.084Z,101395.87
2022-10-16T23:10:43.866Z,101404.72
2022-10-16T23:13:11.558Z,101409.06
2022-10-16T23:15:43.435Z,101416.72
2022-10-16T23:18:10.587Z,101413.72
2022-10-16T23:20:40.729Z,101410.13
2022-10-16T23:23:08.191Z,101426.81
2022-10-16T23:25:35.687Z,101433.41
2022-10-16T23:28:02.549Z,101432.06
2022-10-16T23:30:29.709Z,101428.66
2022-10-16T23:32:56.554Z,101423.37
2022-10-16T23:35:23.386Z,101430.47
2022-10-16T23:37:51.533Z,101427.06
2022-10-16T23:40:18.780Z,101423.66
2022-10-16T23:42:45.735Z,101430.47
2022-10-16T23:45:12.875Z,101424.34
2022-10-16T23:47:41.470Z,101426.59
2022-10-16T23:50:09.593Z,101434.69
2022-10-16T23:52:36.831Z,101436.78
2022-10-16T23:55:04.459Z,101450.03
2022-10-16T23:57:31.430Z,101445.59
2022-10-16T23:59:58.749Z,101438.47
